Terminal Aerodrome Forecast
Issued by NWS Jackson, MS

Home | Current Version | Previous Version | Text Only | Print | Product List | Glossary On
Versions: 1 2 3 4 5 6 7 8 9 10 11 12 13 14 15 16 17 18
000
FTUS44 KJAN 190721 AAA
TAFGWO
TAF AMD
KGWO 190721Z 1907/2006 15006KT P6SM -RA BKN008 OVC100
     FM190900 19003KT 4SM BR OVC007
     FM191600 24008KT P6SM SCT025 BKN200
     FM200000 19013KT P6SM VCTS BKN040CB OVC100=

USA.gov is the U.S. government's official web portal to all federal, state and local government web resources and services.